Time;durP1;ratioP1;P1;durP2;ratioP2;P2;SDS_P1;SDS_P2;PMS_P1;PMS_P2;Temp;Humidity;BMP_temperature;BMP_pressure;BME280_temperature;BME280_humidity;BME280_pressure;Samples;Min_cycle;Max_cycle;Signal;HPM_P1;HPM_P2
2022/05/08 07:37:13;;;;;;;12.02;3.13;;;13.20;57.50;;;;;;4918531;29;20039;-79
2022/05/08 07:40:29;;;;;;;14.63;1.92;;;13.10;58.70;;;;;;4918375;29;20043;-84
2022/05/08 07:42:54;;;;;;;10.00;1.95;;;13.00;57.70;;;;;;4862300;29;20045;-75
2022/05/08 07:45:24;;;;;;;5.90;1.90;;;13.30;58.30;;;;;;4862465;29;20049;-74
2022/05/08 07:47:52;;;;;;;13.68;2.17;;;13.20;59.00;;;;;;4862024;29;20083;-74
2022/05/08 07:50:18;;;;;;;12.98;2.10;;;13.50;57.20;;;;;;4861894;29;20220;-74
2022/05/08 07:52:43;;;;;;;14.43;2.42;;;13.60;58.90;;;;;;4884195;29;20059;-73
2022/05/08 07:55:09;;;;;;;15.33;1.90;;;13.40;57.70;;;;;;4907269;29;20172;-71
2022/05/08 07:57:35;;;;;;;17.33;2.00;;;13.20;57.80;;;;;;4902821;29;20378;-73
2022/05/08 08:00:20;;;;;;;9.30;2.17;;;13.00;58.00;;;;;;4918652;29;20061;-79
2022/05/08 08:02:46;;;;;;;11.40;2.10;;;12.70;59.50;;;;;;4888835;29;20048;-79
2022/05/08 08:05:12;;;;;;;14.05;2.70;;;12.50;59.60;;;;;;4910791;29;20043;-81
2022/05/08 08:07:43;;;;;;;10.50;2.60;;;12.50;58.90;;;;;;4935226;29;20123;-80
2022/05/08 08:10:12;;;;;;;12.60;2.30;;;12.20;60.00;;;;;;4919732;29;20119;-81
2022/05/08 08:12:39;;;;;;;18.83;2.83;;;12.10;60.20;;;;;;4903457;29;20131;-80
2022/05/08 08:15:09;;;;;;;9.07;1.75;;;11.90;61.20;;;;;;4903896;29;20376;-80
2022/05/08 08:17:35;;;;;;;12.57;2.45;;;11.80;60.80;;;;;;4907840;29;20539;-79
2022/05/08 08:20:01;;;;;;;8.80;2.17;;;11.80;61.20;;;;;;4955447;28;20032;-79
2022/05/08 08:22:40;;;;;;;10.05;2.33;;;12.10;62.40;;;;;;4940828;29;20083;-78
2022/05/08 08:25:09;;;;;;;8.82;2.20;;;12.30;61.30;;;;;;4914879;28;20091;-73
2022/05/08 08:27:35;;;;;;;9.30;2.17;;;12.70;60.60;;;;;;4919164;29;20421;-75
2022/05/08 08:30:03;;;;;;;20.15;2.30;;;12.90;59.20;;;;;;4915780;29;20039;-77
2022/05/08 08:32:31;;;;;;;16.60;2.63;;;13.00;57.30;;;;;;4920094;29;20429;-79
2022/05/08 08:49:20;;;;;;;11.02;2.15;;;13.90;56.30;;;;;;4922382;29;20047;-79
2022/05/08 08:51:47;;;;;;;9.00;2.08;;;13.90;56.80;;;;;;4907104;29;20043;-80
2022/05/08 08:54:12;;;;;;;13.82;2.60;;;13.80;56.30;;;;;;4922811;29;20054;-78
2022/05/08 08:57:47;;;;;;;11.98;2.50;;;13.50;56.00;;;;;;4905817;29;20044;-82
2022/05/08 09:04:54;;;;;;;10.80;2.13;;;13.30;57.00;;;;;;4711009;30;20079;-82
2022/05/08 09:07:39;;;;;;;7.80;2.20;;;13.20;57.50;;;;;;4770009;30;20044;-80
2022/05/08 09:10:14;;;;;;;11.18;2.53;;;13.40;57.50;;;;;;4845110;29;20048;-79
2022/05/08 09:12:53;;;;;;;15.15;3.83;;;13.60;58.30;;;;;;4900127;29;20092;-79
2022/05/08 09:15:34;;;;;;;12.07;2.53;;;13.90;57.60;;;;;;4899143;29;20048;-80
2022/05/08 09:18:04;;;;;;;8.57;2.10;;;14.10;56.10;;;;;;4883536;29;20481;-80
2022/05/08 09:20:36;;;;;;;12.38;2.22;;;14.20;55.70;;;;;;4883453;29;20056;-79
2022/05/08 09:23:11;;;;;;;11.02;2.20;;;13.60;55.90;;;;;;4867720;29;20172;-80
2022/05/08 09:25:52;;;;;;;11.98;2.03;;;13.40;57.10;;;;;;4888432;29;20056;-81
2022/05/08 09:28:19;;;;;;;11.05;2.22;;;13.50;57.30;;;;;;4903419;29;20028;-81
2022/05/08 09:31:07;;;;;;;12.57;2.90;;;13.50;57.60;;;;;;4904276;29;20494;-79
2022/05/08 09:33:39;;;;;;;12.73;3.03;;;13.50;58.10;;;;;;4892425;29;20114;-79
2022/05/08 09:36:27;;;;;;;16.85;3.10;;;13.40;56.80;;;;;;4922297;29;20475;-82
2022/05/08 09:39:01;;;;;;;15.35;2.75;;;13.40;56.30;;;;;;4904374;29;20126;-76
2022/05/08 09:41:27;;;;;;;15.70;3.33;;;13.50;56.50;;;;;;4900505;29;20092;-79
2022/05/08 09:44:16;;;;;;;14.27;2.42;;;13.60;57.30;;;;;;4921357;29;20059;-80
2022/05/08 09:46:44;;;;;;;11.00;2.50;;;13.70;56.00;;;;;;4906347;29;20400;-79
2022/05/08 09:49:19;;;;;;;22.35;3.22;;;13.70;55.90;;;;;;4910640;29;20067;-80
2022/05/08 09:51:47;;;;;;;16.80;3.22;;;13.80;55.50;;;;;;4929795;29;20073;-80
2022/05/08 09:54:17;;;;;;;11.57;2.65;;;13.80;55.50;;;;;;4929405;29;20115;-75
2022/05/08 09:56:46;;;;;;;15.88;2.83;;;13.70;55.60;;;;;;4913809;29;20039;-79
2022/05/08 09:59:12;;;;;;;10.18;2.80;;;13.50;56.00;;;;;;4915897;29;20122;-80
2022/05/08 10:02:23;;;;;;;;;;;;;;;;;;;;;
2022/05/08 10:05:12;;;;;;;8.35;1.90;;;13.60;57.20;;;;;;4920063;29;20118;-77
2022/05/08 10:07:41;;;;;;;13.35;2.55;;;13.60;57.60;;;;;;4922910;29;20126;-80
2022/05/08 10:13:54;;;;;;;9.65;2.50;;;13.80;56.60;;;;;;4838708;29;20065;-74
2022/05/08 10:16:42;;;;;;;12.02;2.50;;;13.60;56.70;;;;;;4854300;29;20052;-81
2022/05/08 10:19:19;;;;;;;13.15;2.72;;;13.30;57.00;;;;;;4886496;29;20044;-81
2022/05/08 10:33:37;;;;;;;;;;;;;;;;;;;;;
2022/05/08 10:36:47;;;;;;;10.52;2.17;;;14.30;55.80;;;;;;4858911;29;20416;-83
2022/05/08 10:39:47;;;;;;;17.45;3.45;;;14.00;54.60;;;;;;4876824;29;20059;-82
2022/05/08 11:07:57;;;;;;;14.70;2.35;;;14.70;55.40;;;;;;4994992;23;20098;-73
2022/05/08 11:10:31;;;;;;;16.45;2.45;;;14.90;54.60;;;;;;4920168;29;20597;-76
2022/05/08 11:13:00;;;;;;;7.70;2.13;;;14.90;53.70;;;;;;4937063;29;20047;-72
2022/05/08 11:15:32;;;;;;;15.98;3.28;;;14.80;52.60;;;;;;4920626;29;20086;-73
2022/05/08 11:18:11;;;;;;;10.65;2.38;;;15.10;53.40;;;;;;4920871;29;20055;-71
2022/05/08 11:20:43;;;;;;;10.50;2.38;;;14.90;52.80;;;;;;4920782;29;20544;-71
2022/05/08 11:23:13;;;;;;;13.23;2.42;;;14.70;53.10;;;;;;4920128;29;20127;-71
2022/05/08 11:25:39;;;;;;;10.80;2.20;;;14.90;52.30;;;;;;4904313;29;20443;-70
2022/05/08 11:28:05;;;;;;;14.32;2.60;;;14.80;51.40;;;;;;4937869;29;20102;-72
2022/05/08 11:30:35;;;;;;;10.90;2.45;;;14.70;51.20;;;;;;4904171;29;20416;-70
2022/05/08 11:36:08;;;;;;;10.38;2.50;;;14.70;54.30;;;;;;4919712;29;20043;-70
2022/05/08 11:38:46;;;;;;;14.18;2.38;;;14.60;53.60;;;;;;4903257;29;20047;-69
2022/05/08 11:41:18;;;;;;;11.95;2.45;;;14.90;51.50;;;;;;4903838;29;20048;-81
2022/05/08 11:43:45;;;;;;;12.82;3.00;;;14.90;51.20;;;;;;4933941;29;20090;-78
2022/05/08 11:46:15;;;;;;;9.30;2.28;;;14.70;50.60;;;;;;4920599;29;20122;-78
2022/05/08 11:48:49;;;;;;;14.65;2.45;;;14.80;52.00;;;;;;4920179;29;20079;-82
2022/05/08 11:51:20;;;;;;;20.10;2.85;;;14.90;53.00;;;;;;4904593;29;20044;-81
2022/05/08 11:53:58;;;;;;;9.60;2.15;;;15.00;53.70;;;;;;4920587;29;20035;-77
2022/05/08 11:56:35;;;;;;;13.30;2.50;;;14.90;50.50;;;;;;4920614;29;20416;-79
2022/05/08 11:59:15;;;;;;;12.80;2.60;;;14.90;51.40;;;;;;4920419;29;20050;-78
2022/05/08 12:01:52;;;;;;;12.90;2.78;;;14.80;52.30;;;;;;4919566;29;20496;-77
2022/05/08 12:49:01;;;;;;;9.20;2.50;;;14.80;51.70;;;;;;4816938;26;20102;-81
2022/05/08 12:51:39;;;;;;;11.45;2.67;;;15.00;51.30;;;;;;4979265;28;20051;-80
2022/05/08 12:54:26;;;;;;;14.65;2.75;;;15.00;52.30;;;;;;4931600;28;20059;-79
2022/05/08 12:57:02;;;;;;;14.27;2.75;;;15.10;52.90;;;;;;4926260;29;20047;-80
2022/05/08 12:59:52;;;;;;;13.55;2.78;;;15.20;51.80;;;;;;4922595;29;20043;-79
2022/05/08 13:02:26;;;;;;;9.20;2.40;;;15.10;53.10;;;;;;4923845;29;20093;-80
2022/05/08 13:04:55;;;;;;;13.95;2.80;;;15.10;54.10;;;;;;4940279;29;20075;-79
2022/05/08 13:07:33;;;;;;;15.00;2.80;;;15.30;52.10;;;;;;4924562;29;20039;-81
2022/05/08 13:10:30;;;;;;;;;;;;;;;;;;;;;
2022/05/08 13:13:18;;;;;;;15.73;2.67;;;15.10;51.10;;;;;;4936817;29;20126;-80
2022/05/08 13:15:46;;;;;;;11.68;2.78;;;15.40;53.50;;;;;;4905306;29;20035;-80
2022/05/08 13:18:16;;;;;;;11.32;2.40;;;15.40;53.30;;;;;;4915990;29;20495;-80
2022/05/08 13:21:09;;;;;;;11.00;2.40;;;15.10;52.30;;;;;;4905802;29;20062;-80
2022/05/08 13:23:36;;;;;;;15.27;2.88;;;15.20;52.50;;;;;;4906063;29;20072;-81
2022/05/08 13:26:15;;;;;;;9.45;2.90;;;15.40;52.70;;;;;;4921552;29;20126;-78
2022/05/08 13:29:07;;;;;;;10.10;2.40;;;15.30;52.00;;;;;;4924507;29;20051;-79
2022/05/08 13:31:41;;;;;;;13.23;2.58;;;15.50;52.00;;;;;;4924657;29;20042;-80
2022/05/08 13:34:20;;;;;;;17.63;2.47;;;15.80;51.40;;;;;;4909118;29;20346;-80
2022/05/08 13:36:45;;;;;;;14.05;2.25;;;15.80;51.00;;;;;;4908637;29;20480;-80
2022/05/08 13:39:14;;;;;;;14.90;2.40;;;15.90;50.80;;;;;;4908134;29;20379;-81
2022/05/08 13:41:41;;;;;;;11.38;2.60;;;15.90;51.80;;;;;;4923390;29;20103;-81
2022/05/08 13:44:09;;;;;;;15.93;3.03;;;15.90;50.50;;;;;;4923964;29;20043;-80
2022/05/08 13:46:35;;;;;;;11.20;2.17;;;15.80;48.20;;;;;;4923669;29;20043;-78
2022/05/08 13:49:01;;;;;;;11.95;2.40;;;15.90;49.50;;;;;;4904305;29;20048;-80
2022/05/08 14:02:35;;;;;;;9.55;2.20;;;15.70;51.00;;;;;;4884483;29;20532;-76
2022/05/08 14:05:39;;;;;;;;;;;;;;;;;;;;;
2022/05/08 14:08:17;;;;;;;8.50;2.17;;;15.80;50.90;;;;;;4927645;29;20106;-77
2022/05/08 14:19:10;;;;;;;13.48;2.30;;;15.90;50.50;;;;;;4896782;29;20516;-78
2022/05/08 14:22:07;;;;;;;16.65;2.58;;;15.90;50.30;;;;;;4837535;29;20131;-79
2022/05/08 14:24:34;;;;;;;11.57;2.10;;;15.90;51.20;;;;;;4896233;29;20088;-77
2022/05/08 14:27:01;;;;;;;13.10;2.38;;;15.90;51.80;;;;;;4918692;29;20043;-77
2022/05/08 14:29:27;;;;;;;13.50;2.33;;;16.10;48.20;;;;;;4918087;29;20058;-77
2022/05/08 14:37:23;;;;;;;18.90;2.30;;;16.10;50.30;;;;;;4918589;29;20059;-80
2022/05/08 14:39:51;;;;;;;13.68;2.58;;;16.50;50.20;;;;;;4902867;29;20070;-79
2022/05/08 14:42:17;;;;;;;17.83;2.20;;;16.30;49.70;;;;;;4917981;29;20417;-79
2022/05/08 14:52:12;;;;;;;13.07;2.30;;;16.00;49.50;;;;;;4936249;29;20054;-84
2022/05/08 14:55:19;;;;;;;14.93;2.25;;;16.70;48.90;;;;;;4905292;29;20075;-82
2022/05/08 14:58:07;;;;;;;13.43;2.50;;;16.60;47.30;;;;;;4920374;29;20109;-83
2022/05/08 15:00:35;;;;;;;10.82;2.38;;;16.60;48.20;;;;;;4920755;29;20075;-79
2022/05/08 15:03:01;;;;;;;;;;;16.70;47.70;;;;;;4921766;29;20039;-79
2022/05/08 15:05:30;;;;;;;16.00;2.30;;;16.50;48.60;;;;;;4921109;29;20009;-81
2022/05/08 15:07:59;;;;;;;17.23;2.60;;;16.70;48.60;;;;;;4920539;29;20114;-75
2022/05/08 15:21:53;;;;;;;;;;;17.60;46.20;;;;;;4896632;29;20048;-78
2022/05/08 15:32:08;;;;;;;8.68;2.40;;;17.30;45.60;;;;;;4859935;29;20045;-71
2022/05/08 16:40:39;;;;;;;14.90;3.00;;;13.40;56.10;;;;;;5710649;23;20121;-73
2022/05/08 16:44:09;;;;;;;10.98;2.20;;;13.20;57.10;;;;;;4847736;29;20085;-75
2022/05/08 16:47:14;;;;;;;21.80;2.60;;;13.20;58.30;;;;;;4790156;30;20057;-77
2022/05/08 16:53:54;;;;;;;16.25;2.40;;;12.70;59.10;;;;;;4772633;29;20066;-76
2022/05/08 16:56:21;;;;;;;32.00;3.63;;;12.70;59.00;;;;;;4785796;29;20142;-72
2022/05/08 17:06:08;;;;;;;23.38;2.85;;;12.40;59.30;;;;;;4801658;29;20033;-76
2022/05/08 17:08:34;;;;;;;14.88;2.83;;;12.40;59.70;;;;;;4791425;29;20130;-76
2022/05/08 17:11:09;;;;;;;15.43;2.13;;;12.30;59.50;;;;;;4790627;29;20043;-76
2022/05/08 17:14:37;;;;;;;18.48;2.90;;;12.20;59.00;;;;;;4781623;29;20038;-80
2022/05/08 17:17:06;;;;;;;17.92;3.45;;;12.10;61.10;;;;;;4792479;29;20077;-78
2022/05/08 17:19:46;;;;;;;14.75;2.55;;;12.10;62.00;;;;;;4804142;29;20158;-77
2022/05/08 17:22:13;;;;;;;14.55;3.33;;;12.00;61.90;;;;;;4805004;29;20042;-77
2022/05/08 17:24:42;;;;;;;11.93;2.53;;;12.00;61.00;;;;;;4811535;29;20038;-78
2022/05/08 17:30:29;;;;;;;16.58;2.42;;;11.80;61.70;;;;;;4820655;29;20432;-76
2022/05/08 17:33:59;;;;;;;12.50;2.33;;;11.80;62.60;;;;;;4814970;29;20498;-81
2022/05/08 17:36:29;;;;;;;16.90;2.90;;;11.70;63.20;;;;;;4799063;29;20050;-79
2022/05/08 18:24:21;;;;;;;21.65;5.13;;;10.60;68.90;;;;;;4859915;23;20066;-76
2022/05/08 18:34:28;;;;;;;15.65;2.70;;;10.20;70.20;;;;;;4832363;29;20073;-76
2022/05/08 18:37:01;;;;;;;9.48;2.72;;;10.30;70.10;;;;;;4818174;29;20751;-72
2022/05/08 18:39:28;;;;;;;15.77;3.05;;;10.20;69.90;;;;;;4818109;29;20042;-71
2022/05/08 18:41:56;;;;;;;16.98;3.85;;;10.10;70.80;;;;;;4812132;29;20049;-69
2022/05/08 18:44:26;;;;;;;12.38;3.80;;;10.00;72.40;;;;;;4822320;29;20419;-76
2022/05/08 18:50:05;;;;;;;20.08;4.95;;;9.90;72.30;;;;;;4800315;29;20145;-75
2022/05/08 18:52:30;;;;;;;19.42;4.80;;;9.80;71.90;;;;;;4787579;29;20042;-75
2022/05/08 18:54:57;;;;;;;24.42;6.05;;;9.70;72.70;;;;;;4773879;29;20135;-76
2022/05/08 18:57:24;;;;;;;17.52;5.57;;;9.70;72.40;;;;;;4799951;29;20180;-75
2022/05/08 18:59:52;;;;;;;18.13;5.13;;;9.50;72.60;;;;;;4775897;29;20050;-77
2022/05/08 19:02:18;;;;;;;17.33;5.18;;;9.70;72.60;;;;;;4772268;29;20506;-77
2022/05/08 19:04:51;;;;;;;16.65;4.05;;;9.50;74.60;;;;;;4779093;29;20085;-76
2022/05/08 19:07:23;;;;;;;15.55;3.50;;;9.40;73.90;;;;;;4773172;29;20046;-74
2022/05/08 19:09:49;;;;;;;19.88;4.38;;;9.40;74.90;;;;;;4785710;29;20057;-74
2022/05/08 19:12:18;;;;;;;22.95;4.30;;;9.30;74.30;;;;;;4787404;29;20078;-73
2022/05/08 19:14:49;;;;;;;16.13;3.97;;;9.20;74.20;;;;;;4772310;29;20088;-79
2022/05/08 19:17:17;;;;;;;16.92;4.63;;;9.10;74.30;;;;;;4790953;29;20043;-78
2022/05/08 19:20:10;;;;;;;21.25;3.65;;;9.00;76.60;;;;;;4783291;29;20053;-78
2022/05/08 19:22:39;;;;;;;26.75;4.80;;;8.80;77.10;;;;;;4808104;29;20507;-76
2022/05/08 19:25:19;;;;;;;21.08;4.22;;;8.70;77.20;;;;;;4794667;29;20066;-77
2022/05/08 19:28:53;;;;;;;15.80;3.90;;;8.60;75.80;;;;;;4797946;29;20129;-81
2022/05/08 19:37:59;;;;;;;17.25;3.70;;;8.40;74.90;;;;;;4811069;29;20054;-73
2022/05/08 19:40:26;;;;;;;16.50;5.53;;;8.40;75.20;;;;;;4791591;29;20081;-72
2022/05/08 19:42:53;;;;;;;15.10;6.72;;;8.20;76.40;;;;;;4812583;29;20043;-73
2022/05/08 19:45:19;;;;;;;13.43;3.60;;;8.20;76.70;;;;;;4803342;29;20126;-73
2022/05/08 19:47:45;;;;;;;15.23;3.88;;;8.10;76.50;;;;;;4803875;29;20118;-72
2022/05/08 19:50:10;;;;;;;23.07;6.90;;;8.10;76.40;;;;;;4806566;29;20050;-73
2022/05/08 19:52:36;;;;;;;21.83;7.10;;;8.00;76.80;;;;;;4818569;29;20110;-77
2022/05/08 19:55:03;;;;;;;21.27;7.40;;;8.00;77.00;;;;;;4800293;29;20038;-76
2022/05/08 19:57:31;;;;;;;22.45;4.60;;;8.00;76.50;;;;;;4802396;29;20039;-76
2022/05/08 20:00:00;;;;;;;13.00;4.07;;;7.90;78.10;;;;;;4793120;29;20158;-75
2022/05/08 20:02:29;;;;;;;22.42;4.20;;;7.90;77.20;;;;;;4777522;29;20051;-77
2022/05/08 20:04:55;;;;;;;19.83;5.97;;;7.70;78.20;;;;;;4814665;29;20433;-75
2022/05/08 20:07:26;;;;;;;19.90;5.22;;;7.60;79.40;;;;;;4792864;29;20042;-75
2022/05/08 20:09:52;;;;;;;17.83;4.70;;;7.60;79.10;;;;;;4780187;29;20081;-75
2022/05/08 20:12:18;;;;;;;17.70;4.38;;;7.50;79.90;;;;;;4812170;29;20171;-73
2022/05/08 20:14:44;;;;;;;14.75;4.60;;;7.40;79.90;;;;;;4822743;29;20496;-74
2022/05/08 20:17:10;;;;;;;20.75;4.55;;;7.40;80.00;;;;;;4825868;29;20061;-74
2022/05/08 20:19:37;;;;;;;17.38;4.40;;;7.60;79.90;;;;;;4826048;29;20054;-75
2022/05/08 20:22:03;;;;;;;;;;;7.30;80.40;;;;;;4827230;29;20390;-75
2022/05/08 20:24:39;;;;;;;17.60;6.93;;;7.50;82.60;;;;;;4827067;29;19928;-76
2022/05/08 20:27:48;;;;;;;24.13;8.10;;;7.30;81.20;;;;;;4810110;29;20194;-81
2022/05/08 20:30:39;;;;;;;16.92;6.15;;;7.20;82.00;;;;;;4871271;23;20046;-78
2022/05/08 20:33:05;;;;;;;13.48;5.30;;;7.20;80.20;;;;;;4895422;24;20135;-79
2022/05/08 20:35:31;;;;;;;23.48;8.77;;;7.20;80.10;;;;;;4846752;29;20061;-73
2022/05/08 20:37:56;;;;;;;23.30;9.03;;;7.30;80.50;;;;;;4836122;29;20039;-72
2022/05/08 20:40:22;;;;;;;16.55;6.70;;;7.20;80.60;;;;;;4841257;29;20046;-72
2022/05/08 20:42:51;;;;;;;23.00;5.30;;;7.10;80.80;;;;;;4812395;29;20065;-79
2022/05/08 20:53:52;;;;;;;19.83;5.95;;;7.00;82.30;;;;;;4713733;30;20060;-83
2022/05/08 21:08:32;;;;;;;21.05;8.57;;;7.10;83.80;;;;;;4649467;30;20055;-81
2022/05/08 21:19:32;;;;;;;;;;;;;;;;;;;;;
2022/05/08 21:27:19;;;;;;;;;;;;;;;;;;;;;
2022/05/08 21:31:02;;;;;;;;;;;;;;;;;;;;;
2022/05/08 21:54:02;;;;;;;;;;;;;;;;;;;;;
2022/05/08 22:04:39;;;;;;;;;;;;;;;;;;;;;
2022/05/08 22:08:31;;;;;;;20.40;6.38;;;5.70;86.60;;;;;;4702175;30;20064;-83
2022/05/08 22:15:18;;;;;;;;;;;;;;;;;;;;;
2022/05/08 22:22:25;;;;;;;25.80;7.30;;;5.90;86.80;;;;;;4618823;31;20058;-84
2022/05/08 22:25:40;;;;;;;15.13;6.00;;;5.40;86.20;;;;;;4640090;30;20046;-78
2022/05/08 22:37:31;;;;;;;23.20;6.75;;;5.70;86.50;;;;;;4705737;30;20128;-81
2022/05/08 22:49:30;;;;;;;;;;;;;;;;;;;;;
2022/05/08 22:53:01;;;;;;;;;;;;;;;;;;;;;
2022/05/08 23:00:00;;;;;;;21.40;6.65;;;5.80;87.50;;;;;;4665795;30;20057;-82
2022/05/08 23:07:44;;;;;;;18.75;7.18;;;5.90;88.10;;;;;;4590958;31;20052;-82
2022/05/08 23:25:13;;;;;;;20.50;7.35;;;5.60;88.10;;;;;;4661869;30;20043;-81
2022/05/08 23:36:36;;;;;;;;;;;;;;;;;;;;;
2022/05/08 23:44:31;;;;;;;;;;;;;;;;;;;;;
2022/05/08 23:57:33;;;;;;;;;;;;;;;;;;;;;
